Time;durP1;ratioP1;P1;durP2;ratioP2;P2;SDS_P1;SDS_P2;PMS_P1;PMS_P2;Temp;Humidity;BMP_temperature;BMP_pressure;BME280_temperature;BME280_humidity;BME280_pressure;Samples;Min_cycle;Max_cycle;Signal;HPM_P1;HPM_P2
2022/06/24 00:01:23;;;;;;;5.75;1.23;;;;;;;17.42;100.00;96837.47;5022960;28;20041;-67
2022/06/24 00:03:50;;;;;;;5.93;1.33;;;;;;;17.43;100.00;96833.59;5014020;28;20509;-67
2022/06/24 00:06:17;;;;;;;5.65;1.17;;;;;;;17.28;100.00;96843.78;5007652;28;20100;-69
2022/06/24 00:08:56;;;;;;;4.68;1.23;;;;;;;17.21;100.00;96840.66;5016253;28;20417;-68
2022/06/24 00:11:24;;;;;;;3.22;0.90;;;;;;;17.21;100.00;96839.88;5020910;28;20056;-67
2022/06/24 00:13:51;;;;;;;8.27;1.45;;;;;;;17.03;100.00;96843.22;5028268;28;20496;-68
2022/06/24 00:16:17;;;;;;;3.63;1.50;;;;;;;17.10;100.00;96842.81;5038979;28;20096;-68
2022/06/24 00:18:46;;;;;;;4.78;1.65;;;;;;;17.31;100.00;96836.91;5047717;28;20420;-68
2022/06/24 00:21:13;;;;;;;5.18;1.80;;;;;;;17.09;100.00;96845.88;5039956;28;20041;-67
2022/06/24 00:23:40;;;;;;;5.32;1.63;;;;;;;17.07;100.00;96842.66;5044815;28;20492;-68
2022/06/24 00:26:08;;;;;;;7.40;1.77;;;;;;;17.27;100.00;96830.41;5006321;28;20042;-67
2022/06/24 00:28:34;;;;;;;3.70;1.23;;;;;;;17.12;100.00;96835.13;5026286;28;20057;-67
2022/06/24 00:31:03;;;;;;;5.85;1.52;;;;;;;17.20;100.00;96828.13;5016957;28;20444;-68
2022/06/24 00:33:34;;;;;;;6.82;1.83;;;;;;;17.26;100.00;96837.84;5007929;28;20049;-68
2022/06/24 00:36:01;;;;;;;;;;;;;;;17.38;100.00;96831.81;5007749;28;20046;-67
2022/06/24 00:38:36;;;;;;;6.35;1.60;;;;;;;17.40;100.00;96826.03;5027559;28;20355;-67
2022/06/24 00:41:10;;;;;;;5.60;1.70;;;;;;;17.43;100.00;96819.91;5027542;28;20046;-67
2022/06/24 00:43:41;;;;;;;5.90;1.52;;;;;;;17.39;100.00;96810.72;5026601;28;20241;-67
2022/06/24 00:46:15;;;;;;;4.35;1.50;;;;;;;17.34;100.00;96808.09;5017677;28;20462;-67
2022/06/24 00:48:50;;;;;;;4.57;1.52;;;;;;;17.22;100.00;96803.19;5006626;28;20045;-67
2022/06/24 00:51:19;;;;;;;3.92;1.35;;;;;;;17.20;100.00;96802.69;5007649;28;20050;-67
2022/06/24 00:53:52;;;;;;;7.35;1.80;;;;;;;17.12;100.00;96804.22;5007661;28;20116;-67
2022/06/24 00:56:21;;;;;;;7.35;2.40;;;;;;;17.07;100.00;96807.91;5007884;28;20115;-67
2022/06/24 00:59:01;;;;;;;5.53;2.60;;;;;;;17.09;100.00;96799.38;5007614;28;20060;-67
2022/06/24 01:01:32;;;;;;;5.78;1.77;;;;;;;17.17;100.00;96801.38;5021918;28;20052;-67
2022/06/24 01:04:01;;;;;;;9.25;2.33;;;;;;;17.18;100.00;96794.81;5047257;28;20045;-67
2022/06/24 01:06:29;;;;;;;7.53;1.70;;;;;;;17.11;100.00;96800.72;5032337;28;20049;-67
2022/06/24 01:08:56;;;;;;;8.32;1.88;;;;;;;17.10;100.00;96796.31;5016111;28;20467;-67
2022/06/24 01:11:27;;;;;;;6.85;1.77;;;;;;;16.97;100.00;96797.16;5026925;28;20548;-67
2022/06/24 01:13:54;;;;;;;5.28;1.55;;;;;;;16.96;100.00;96809.22;5027316;28;20041;-67
2022/06/24 01:16:22;;;;;;;8.35;1.98;;;;;;;17.07;100.00;96801.63;5025858;28;20042;-68
2022/06/24 01:18:57;;;;;;;5.03;1.45;;;;;;;17.20;100.00;96799.94;5026648;28;20050;-67
2022/06/24 01:21:41;;;;;;;5.70;1.50;;;;;;;17.08;100.00;96800.50;5023890;28;20423;-67
2022/06/24 01:24:20;;;;;;;5.50;1.67;;;;;;;16.95;100.00;96802.94;5005415;28;20050;-67
2022/06/24 01:26:48;;;;;;;7.28;2.00;;;;;;;17.08;100.00;96790.38;5025718;28;20041;-67
2022/06/24 01:29:18;;;;;;;6.30;1.58;;;;;;;17.08;100.00;96778.63;5030069;28;20041;-68
2022/06/24 01:31:48;;;;;;;5.93;2.40;;;;;;;17.11;100.00;96778.00;5032455;28;20049;-68
2022/06/24 01:34:17;;;;;;;5.32;1.42;;;;;;;16.92;100.00;96784.44;5023126;28;20052;-68
2022/06/24 01:36:44;;;;;;;6.55;2.13;;;;;;;16.89;100.00;96791.28;5027975;28;20045;-67
2022/06/24 01:39:11;;;;;;;5.25;1.55;;;;;;;16.78;100.00;96784.44;5027434;28;20045;-67
2022/06/24 01:41:38;;;;;;;6.13;1.60;;;;;;;16.74;100.00;96786.97;5026490;28;20140;-68
2022/06/24 01:44:05;;;;;;;7.43;1.83;;;;;;;16.71;100.00;96801.28;5022005;28;20061;-66
2022/06/24 01:46:32;;;;;;;7.75;1.80;;;;;;;16.76;100.00;96803.06;5004750;28;20068;-67
2022/06/24 01:48:59;;;;;;;6.60;2.03;;;;;;;16.65;100.00;96788.81;5007040;28;20125;-67
2022/06/24 01:51:27;;;;;;;9.05;2.00;;;;;;;16.76;100.00;96783.94;5005864;28;20042;-68
2022/06/24 01:53:53;;;;;;;7.28;2.10;;;;;;;16.74;100.00;96777.97;5006881;28;20401;-67
2022/06/24 01:56:20;;;;;;;10.95;2.67;;;;;;;16.57;100.00;96770.41;5010148;28;20522;-67
2022/06/24 01:58:47;;;;;;;7.63;2.78;;;;;;;16.53;100.00;96772.94;5011107;28;20048;-67
2022/06/24 02:01:14;;;;;;;9.20;3.03;;;;;;;16.48;100.00;96779.31;5022578;28;20048;-66
2022/06/24 02:03:40;;;;;;;7.25;2.60;;;;;;;16.48;100.00;96775.78;5050780;28;20407;-67
2022/06/24 02:06:09;;;;;;;10.13;2.53;;;;;;;16.45;100.00;96768.19;5050035;28;20071;-67
2022/06/24 02:08:36;;;;;;;7.93;3.55;;;;;;;16.35;100.00;96772.78;5043492;28;20283;-67
2022/06/24 02:13:57;;;;;;;6.78;2.58;;;;;;;16.36;100.00;96752.53;5030298;28;20048;-67
2022/06/24 02:16:25;;;;;;;5.53;2.20;;;;;;;16.29;100.00;96752.13;5029548;28;20041;-67
2022/06/24 02:18:53;;;;;;;9.35;2.63;;;;;;;16.33;100.00;96757.81;5030529;28;20077;-67
2022/06/24 02:21:23;;;;;;;4.38;2.10;;;;;;;16.32;100.00;96762.44;5029383;28;20045;-67
2022/06/24 02:23:51;;;;;;;6.55;2.25;;;;;;;16.33;100.00;96755.84;5030122;28;20045;-67
2022/06/24 02:26:18;;;;;;;7.03;2.15;;;;;;;16.32;100.00;96756.16;5029837;28;20037;-67
2022/06/24 02:28:44;;;;;;;6.75;2.47;;;;;;;16.32;100.00;96756.16;5012388;28;20038;-68
2022/06/24 02:31:11;;;;;;;6.03;2.60;;;;;;;16.21;100.00;96756.38;5009908;28;20084;-67
2022/06/24 02:33:38;;;;;;;6.60;2.78;;;;;;;16.23;100.00;96754.16;5008278;28;20038;-67
2022/06/24 02:36:05;;;;;;;7.68;2.47;;;;;;;16.21;100.00;96752.81;5009059;28;20042;-67
2022/06/24 02:38:32;;;;;;;7.65;2.70;;;;;;;16.19;100.00;96755.06;5016582;28;20033;-67
2022/06/24 02:41:00;;;;;;;4.90;2.10;;;;;;;16.22;100.00;96760.72;5029572;28;20068;-68
2022/06/24 02:43:28;;;;;;;6.85;2.00;;;;;;;16.21;100.00;96758.28;5029576;28;20041;-67
2022/06/24 02:45:59;;;;;;;7.63;2.58;;;;;;;16.20;100.00;96756.69;5029169;28;20052;-67
2022/06/24 02:48:27;;;;;;;7.32;2.42;;;;;;;16.21;100.00;96764.56;5029007;28;20046;-67
2022/06/24 02:50:56;;;;;;;7.35;2.20;;;;;;;16.21;100.00;96750.91;5029515;28;20045;-66
2022/06/24 02:53:24;;;;;;;6.85;3.47;;;;;;;16.09;100.00;96762.34;5028524;28;20311;-66
2022/06/24 02:55:52;;;;;;;8.35;2.70;;;;;;;16.11;100.00;96753.88;5009423;28;20046;-68
2022/06/24 02:58:19;;;;;;;6.80;2.28;;;;;;;16.06;100.00;96751.22;5008916;28;20417;-68
2022/06/24 03:00:47;;;;;;;6.45;2.53;;;;;;;15.97;100.00;96762.88;5014116;28;20054;-66
2022/06/24 03:03:15;;;;;;;6.28;2.40;;;;;;;15.89;100.00;96752.63;5043384;28;20124;-68
2022/06/24 03:05:42;;;;;;;5.65;2.40;;;;;;;15.89;100.00;96752.63;5009633;28;20042;-67
2022/06/24 03:08:11;;;;;;;8.23;2.90;;;;;;;15.86;100.00;96761.41;5010281;28;20045;-67
2022/06/24 03:10:38;;;;;;;6.80;2.30;;;;;;;15.80;100.00;96755.22;5009555;28;20042;-67
2022/06/24 03:13:05;;;;;;;7.35;2.55;;;;;;;15.79;100.00;96758.25;5008874;28;20049;-66
2022/06/24 03:15:32;;;;;;;7.90;2.53;;;;;;;15.70;100.00;96761.66;5008627;28;20042;-67
2022/06/24 03:17:59;;;;;;;9.02;2.88;;;;;;;15.70;100.00;96763.59;5009136;28;20049;-67
2022/06/24 03:20:26;;;;;;;6.90;2.85;;;;;;;15.65;100.00;96763.66;5019993;28;20044;-67
2022/06/24 03:22:53;;;;;;;7.30;3.03;;;;;;;15.60;100.00;96764.59;5028521;28;20038;-67
2022/06/24 03:25:20;;;;;;;8.50;3.33;;;;;;;15.60;100.00;96754.47;5017279;28;20041;-67
2022/06/24 03:27:47;;;;;;;7.57;3.17;;;;;;;15.55;100.00;96761.97;5029067;28;20050;-68
2022/06/24 03:30:14;;;;;;;9.05;3.33;;;;;;;15.65;100.00;96750.84;5024856;28;20068;-68
2022/06/24 03:32:41;;;;;;;12.88;3.80;;;;;;;15.63;100.00;96747.63;5027352;28;20052;-68
2022/06/24 03:35:10;;;;;;;9.60;3.70;;;;;;;15.54;100.00;96750.22;5030237;28;20056;-67
2022/06/24 03:37:37;;;;;;;7.70;3.00;;;;;;;15.52;100.00;96746.97;5021365;28;20053;-67
2022/06/24 03:40:04;;;;;;;12.18;4.00;;;;;;;15.57;100.00;96743.34;5028189;28;20080;-67
2022/06/24 03:42:31;;;;;;;8.88;3.13;;;;;;;15.41;100.00;96738.16;5026011;28;20052;-69
2022/06/24 03:44:58;;;;;;;9.55;3.40;;;;;;;15.40;100.00;96746.66;5026474;28;20045;-67
2022/06/24 03:47:24;;;;;;;8.85;3.92;;;;;;;15.41;100.00;96735.44;5028102;28;20520;-67
2022/06/24 03:49:51;;;;;;;10.43;3.05;;;;;;;15.28;100.00;96734.28;5046080;28;20428;-68
2022/06/24 03:52:18;;;;;;;8.68;3.58;;;;;;;15.33;100.00;96744.28;5034235;28;20042;-67
2022/06/24 03:54:45;;;;;;;6.70;3.13;;;;;;;15.38;100.00;96729.78;5017258;28;20526;-67
2022/06/24 03:57:12;;;;;;;9.45;4.70;;;;;;;15.29;100.00;96735.91;5008430;28;20497;-66
2022/06/24 03:59:39;;;;;;;9.52;4.22;;;;;;;15.24;100.00;96738.72;5007466;28;20053;-66
2022/06/24 04:02:05;;;;;;;7.93;3.67;;;;;;;15.25;100.00;96743.06;5033554;28;20068;-68
2022/06/24 04:04:32;;;;;;;10.52;3.45;;;;;;;15.26;100.00;96735.72;5012018;28;20034;-67
2022/06/24 04:06:58;;;;;;;10.32;3.50;;;;;;;15.28;100.00;96742.47;5007803;28;20048;-68
2022/06/24 04:09:25;;;;;;;9.23;3.75;;;;;;;15.30;100.00;96742.19;5017875;28;20042;-68
2022/06/24 04:11:51;;;;;;;9.85;3.10;;;;;;;15.43;100.00;96740.59;5007271;28;20045;-68
2022/06/24 04:17:03;;;;;;;7.65;3.65;;;;;;;15.42;100.00;96745.25;5007016;28;20046;-67
2022/06/24 04:19:30;;;;;;;8.70;3.85;;;;;;;15.42;100.00;96736.25;5006998;28;20068;-67
2022/06/24 04:21:57;;;;;;;7.40;2.63;;;;;;;15.40;100.00;96739.28;5008101;28;20042;-67
2022/06/24 04:24:23;;;;;;;6.90;2.80;;;;;;;15.47;100.00;96734.25;5007926;28;20041;-67
2022/06/24 04:26:50;;;;;;;7.10;3.00;;;;;;;15.51;100.00;96737.16;5007486;28;20470;-67
2022/06/24 04:29:16;;;;;;;7.78;2.90;;;;;;;15.51;100.00;96741.84;5007113;28;20042;-67
2022/06/24 04:31:43;;;;;;;11.52;3.83;;;;;;;15.63;100.00;96742.16;5007273;28;20042;-68
2022/06/24 04:34:10;;;;;;;5.07;2.83;;;;;;;15.69;100.00;96740.13;5007487;28;20501;-67
2022/06/24 04:36:37;;;;;;;9.45;3.33;;;;;;;15.79;100.00;96744.59;5007409;28;20421;-69
2022/06/24 04:39:03;;;;;;;10.50;3.95;;;;;;;15.90;100.00;96735.13;5018792;28;20041;-67
2022/06/24 04:41:30;;;;;;;7.13;2.80;;;;;;;16.06;100.00;96734.81;5023140;28;20045;-67
2022/06/24 04:43:56;;;;;;;9.68;2.75;;;;;;;16.14;100.00;96731.38;5020230;28;20046;-68
2022/06/24 04:46:23;;;;;;;7.50;2.78;;;;;;;16.27;100.00;96724.31;5035752;28;20049;-66
2022/06/24 04:48:49;;;;;;;7.38;2.78;;;;;;;16.29;100.00;96726.75;5016780;28;20049;-66
2022/06/24 04:51:16;;;;;;;9.65;2.90;;;;;;;16.21;100.00;96720.88;5043804;28;20040;-66
2022/06/24 04:53:43;;;;;;;8.57;3.08;;;;;;;16.26;100.00;96725.44;5045148;28;20056;-67
2022/06/24 04:56:09;;;;;;;5.90;3.20;;;;;;;16.24;100.00;96723.00;5031878;28;20041;-67
2022/06/24 04:58:36;;;;;;;7.85;2.92;;;;;;;16.28;100.00;96722.41;5025427;28;20121;-66
2022/06/24 05:01:02;;;;;;;6.50;3.20;;;;;;;16.36;100.00;96733.41;5017915;28;20166;-66
2022/06/24 05:03:29;;;;;;;8.48;3.13;;;;;;;16.49;100.00;96726.31;5026841;28;20033;-66
2022/06/24 05:05:56;;;;;;;6.20;2.70;;;;;;;16.64;99.78;96732.53;5024243;28;20516;-66
2022/06/24 05:08:22;;;;;;;4.97;2.20;;;;;;;16.79;99.10;96734.13;5022436;28;20057;-66
2022/06/24 05:10:56;;;;;;;7.22;2.83;;;;;;;16.84;99.34;96733.22;5025198;28;20493;-66
2022/06/24 05:13:22;;;;;;;7.07;2.53;;;;;;;16.92;99.87;96729.75;5023657;28;20064;-67
2022/06/24 05:15:49;;;;;;;7.78;2.53;;;;;;;16.94;98.84;96730.22;5026552;28;20049;-65
2022/06/24 05:18:15;;;;;;;6.63;2.80;;;;;;;16.93;99.17;96736.81;5023656;28;20410;-67
2022/06/24 05:20:42;;;;;;;8.80;2.50;;;;;;;17.07;99.36;96741.44;5005520;28;20042;-67
2022/06/24 05:23:08;;;;;;;8.48;3.00;;;;;;;17.20;98.94;96745.22;5028830;28;20063;-66
2022/06/24 05:25:35;;;;;;;11.13;2.90;;;;;;;17.34;96.76;96750.66;5018888;28;20057;-66
2022/06/24 05:28:06;;;;;;;11.27;2.45;;;;;;;17.52;94.67;96743.38;5010743;28;20688;-67
2022/06/24 05:30:32;;;;;;;3.83;2.10;;;;;;;17.55;94.78;96740.78;5020545;28;20053;-66
2022/06/24 05:32:59;;;;;;;7.40;2.30;;;;;;;17.53;95.54;96737.56;5024538;28;20045;-66
2022/06/24 05:35:25;;;;;;;10.45;2.60;;;;;;;17.55;95.10;96729.06;5036617;28;20048;-67
2022/06/24 05:37:52;;;;;;;8.90;2.55;;;;;;;17.52;94.68;96730.50;5038422;28;20053;-67
2022/06/24 05:40:20;;;;;;;8.18;4.05;;;;;;;17.62;94.73;96725.88;5016232;28;20424;-67
2022/06/24 05:42:46;;;;;;;7.85;2.65;;;;;;;17.66;94.74;96727.66;5019386;28;20137;-68
2022/06/24 05:45:13;;;;;;;7.03;2.40;;;;;;;17.67;94.80;96732.03;5036201;28;20037;-66
2022/06/24 05:47:39;;;;;;;9.40;2.50;;;;;;;17.63;94.46;96731.03;5027905;28;20045;-66
2022/06/24 05:50:06;;;;;;;7.45;2.40;;;;;;;17.73;94.82;96734.63;5025754;28;20049;-67
2022/06/24 05:55:18;;;;;;;7.28;2.33;;;;;;;17.69;93.60;96728.94;5019634;28;20041;-66
2022/06/24 05:57:45;;;;;;;8.48;3.45;;;;;;;17.77;94.38;96714.50;5024500;28;20069;-66
2022/06/24 06:00:12;;;;;;;5.80;2.60;;;;;;;17.86;93.81;96722.75;5045240;28;20048;-66
2022/06/24 06:02:38;;;;;;;8.13;2.50;;;;;;;17.96;93.43;96718.94;5033046;28;20540;-66
2022/06/24 06:05:11;;;;;;;6.68;2.45;;;;;;;18.02;93.23;96719.59;5048437;28;20464;-67
2022/06/24 06:07:38;;;;;;;10.13;2.53;;;;;;;18.06;91.95;96726.06;5034145;28;20103;-66
2022/06/24 06:10:05;;;;;;;5.95;2.45;;;;;;;18.23;92.04;96719.03;5029125;28;20053;-67
2022/06/24 06:12:34;;;;;;;8.85;2.90;;;;;;;18.39;92.01;96714.72;5026518;28;20037;-67
2022/06/24 06:15:02;;;;;;;9.57;2.67;;;;;;;18.45;90.93;96720.84;5010441;28;20124;-67
2022/06/24 06:17:28;;;;;;;6.18;2.47;;;;;;;18.53;89.79;96728.28;5011157;28;20489;-67
2022/06/24 06:19:55;;;;;;;6.63;1.95;;;;;;;18.72;89.76;96729.91;5024961;28;20402;-67
2022/06/24 06:22:21;;;;;;;8.43;2.53;;;;;;;18.90;89.11;96730.75;5043057;28;20049;-67
2022/06/24 06:24:48;;;;;;;10.75;3.88;;;;;;;19.00;87.21;96728.78;5027884;28;20057;-66
2022/06/24 06:27:14;;;;;;;7.75;2.50;;;;;;;19.09;88.10;96735.94;5034810;28;20068;-66
2022/06/24 06:29:41;;;;;;;6.97;2.75;;;;;;;19.27;87.98;96735.91;5025915;28;20057;-67
2022/06/24 06:32:08;;;;;;;6.97;2.17;;;;;;;19.46;83.80;96737.50;5033138;28;20531;-67
2022/06/24 06:34:34;;;;;;;7.90;2.30;;;;;;;19.60;82.25;96743.59;5033776;28;20709;-66
2022/06/24 06:37:01;;;;;;;6.95;2.45;;;;;;;19.54;81.96;96736.69;5032471;28;20063;-67
2022/06/24 06:39:28;;;;;;;8.32;2.50;;;;;;;19.52;82.45;96744.44;5036915;28;20079;-67
2022/06/24 06:41:54;;;;;;;6.78;2.05;;;;;;;19.68;82.63;96730.19;5031241;28;20048;-67
2022/06/24 06:44:21;;;;;;;5.40;2.42;;;;;;;19.58;80.60;96737.66;5022259;28;20050;-67
2022/06/24 06:46:48;;;;;;;8.43;2.22;;;;;;;19.67;81.46;96731.31;5027062;28;20527;-67
2022/06/24 06:49:15;;;;;;;7.13;2.60;;;;;;;19.59;81.30;96742.00;5026246;28;20489;-67
2022/06/24 06:51:42;;;;;;;4.03;2.20;;;;;;;19.65;81.47;96731.66;5036442;28;20057;-67
2022/06/24 06:54:08;;;;;;;6.07;2.65;;;;;;;19.80;81.25;96729.50;5035410;28;20037;-67
2022/06/24 06:56:35;;;;;;;7.90;2.30;;;;;;;19.89;78.98;96731.09;5014714;28;20504;-66
2022/06/24 06:59:01;;;;;;;10.00;2.28;;;;;;;20.08;78.25;96724.41;5028320;28;20060;-66
2022/06/24 07:01:28;;;;;;;6.00;1.80;;;;;;;20.25;78.78;96722.69;5031108;28;20049;-66
2022/06/24 07:03:55;;;;;;;7.97;2.10;;;;;;;20.50;75.52;96731.91;5041426;28;20033;-67
2022/06/24 07:06:21;;;;;;;3.47;1.63;;;;;;;20.71;76.73;96738.59;5030042;28;20056;-67
2022/06/24 07:08:48;;;;;;;5.35;1.83;;;;;;;20.81;73.05;96729.94;5037223;28;20037;-67
2022/06/24 07:11:14;;;;;;;5.03;2.05;;;;;;;20.85;72.89;96730.06;5016659;28;20045;-66
2022/06/24 07:13:41;;;;;;;5.28;2.08;;;;;;;21.07;71.67;96728.16;5026893;28;20042;-67
2022/06/24 07:16:09;;;;;;;6.53;1.92;;;;;;;21.17;69.43;96731.31;5032867;28;20045;-66
2022/06/24 07:18:36;;;;;;;5.70;2.10;;;;;;;21.03;69.68;96736.28;5046902;28;20053;-67
2022/06/24 07:21:03;;;;;;;6.32;1.70;;;;;;;21.03;70.11;96739.84;5033941;28;20042;-67
2022/06/24 07:23:29;;;;;;;5.13;1.70;;;;;;;21.09;70.06;96737.69;5038457;28;20060;-67
2022/06/24 07:25:57;;;;;;;4.25;1.80;;;;;;;20.91;70.20;96737.03;5046376;28;20041;-67
2022/06/24 07:28:28;;;;;;;5.90;2.17;;;;;;;21.24;69.51;96735.44;5040410;28;21286;-67
2022/06/24 07:30:54;;;;;;;6.65;2.08;;;;;;;21.06;68.52;96732.84;5038984;28;20052;-66
2022/06/24 07:33:23;;;;;;;5.70;2.10;;;;;;;21.41;69.00;96724.28;5024271;28;20049;-67
2022/06/24 07:35:50;;;;;;;6.05;1.95;;;;;;;21.71;67.08;96720.56;5020531;28;20049;-66
2022/06/24 07:38:18;;;;;;;5.13;1.80;;;;;;;21.82;67.47;96729.22;5026466;28;20049;-67
2022/06/24 07:40:45;;;;;;;8.30;2.25;;;;;;;22.31;66.50;96717.41;5022886;28;20120;-67
2022/06/24 07:43:11;;;;;;;4.50;2.20;;;;;;;22.31;63.95;96727.63;5027301;28;20528;-67
2022/06/24 07:45:39;;;;;;;4.30;1.40;;;;;;;22.29;63.86;96721.69;5036717;28;20049;-67
2022/06/24 07:48:05;;;;;;;4.90;1.83;;;;;;;22.50;63.48;96717.94;5021492;28;20038;-67
2022/06/24 07:50:32;;;;;;;5.30;1.73;;;;;;;21.93;66.43;96721.31;5038574;28;20062;-67
2022/06/24 07:52:59;;;;;;;5.40;1.80;;;;;;;21.90;64.77;96722.81;5022992;28;20128;-67
2022/06/24 07:58:11;;;;;;;6.30;3.17;;;;;;;21.63;64.79;96719.50;5039136;28;20056;-67
2022/06/24 08:00:37;;;;;;;5.32;1.83;;;;;;;21.76;64.98;96727.81;5027916;28;20061;-66
2022/06/24 08:03:05;;;;;;;2.97;1.40;;;;;;;22.06;63.97;96713.84;5045354;28;20052;-67
2022/06/24 08:05:32;;;;;;;5.93;1.95;;;;;;;21.66;66.24;96720.75;5045818;28;20159;-67
2022/06/24 08:07:58;;;;;;;6.03;1.95;;;;;;;21.65;65.85;96713.66;5030608;28;20050;-67
2022/06/24 08:10:25;;;;;;;4.00;1.83;;;;;;;21.10;67.40;96717.28;5030902;28;20041;-67
2022/06/24 08:12:51;;;;;;;3.08;1.17;;;;;;;21.40;65.57;96719.91;5045165;28;20049;-67
2022/06/24 08:15:18;;;;;;;3.67;1.85;;;;;;;21.30;66.42;96709.34;5031706;28;20052;-67
2022/06/24 08:17:45;;;;;;;5.72;1.65;;;;;;;21.40;66.51;96699.81;5041107;28;20523;-67
2022/06/24 08:20:12;;;;;;;3.92;1.60;;;;;;;21.38;64.82;96708.41;5033777;28;20049;-67
2022/06/24 08:22:38;;;;;;;5.15;1.98;;;;;;;21.59;69.10;96712.28;5032953;28;20042;-67
2022/06/24 08:25:07;;;;;;;3.85;2.10;;;;;;;22.04;68.80;96711.44;5025325;28;20550;-67
2022/06/24 08:27:50;;;;;;;8.38;2.60;;;;;;;21.92;69.95;96703.16;5012323;28;20095;-67
2022/06/24 08:30:17;;;;;;;8.73;2.63;;;;;;;21.69;71.83;96698.88;5031969;28;20080;-67
2022/06/24 08:32:44;;;;;;;7.95;2.70;;;;;;;;;;5033072;28;20056;-67
2022/06/24 08:35:10;;;;;;;6.05;2.42;;;;;;;22.40;66.88;96695.22;5038821;28;20045;-67
2022/06/24 08:37:54;;;;;;;3.95;2.15;;;;;;;22.47;68.12;96698.19;5035398;28;20049;-67
2022/06/24 08:40:24;;;;;;;8.82;2.60;;;;;;;22.49;67.69;96692.34;5018398;28;20049;-67
2022/06/24 08:42:52;;;;;;;4.85;2.10;;;;;;;22.43;66.81;96691.78;5037471;28;20052;-67
2022/06/24 08:45:19;;;;;;;5.47;2.30;;;;;;;21.60;68.22;96684.41;5018440;28;20049;-67
2022/06/24 08:47:48;;;;;;;5.65;2.17;;;;;;;21.32;68.74;96682.25;5015904;28;20053;-66
2022/06/24 08:50:15;;;;;;;4.85;1.92;;;;;;;21.25;68.76;96679.25;5022662;28;20057;-67
2022/06/24 08:52:53;;;;;;;6.85;1.88;;;;;;;21.31;67.87;96677.91;5025136;28;20053;-67
2022/06/24 08:55:24;;;;;;;5.03;2.15;;;;;;;21.33;69.95;96672.84;5013440;28;20107;-67
2022/06/24 08:57:51;;;;;;;6.18;2.88;;;;;;;21.68;68.00;96669.69;5025381;28;20134;-67
2022/06/24 09:00:18;;;;;;;5.85;1.77;;;;;;;21.89;66.18;96666.06;5017326;28;20041;-67
2022/06/24 09:02:47;;;;;;;5.57;1.80;;;;;;;22.26;64.54;96669.97;5029087;28;20264;-67
2022/06/24 09:05:15;;;;;;;6.63;1.95;;;;;;;22.77;63.14;96674.25;5036218;28;20092;-67
2022/06/24 09:07:42;;;;;;;9.35;2.28;;;;;;;23.24;61.94;96665.31;5018066;28;20045;-67
2022/06/24 09:10:12;;;;;;;6.32;2.00;;;;;;;23.10;60.96;96667.69;5025408;28;20503;-66
2022/06/24 09:12:41;;;;;;;4.95;1.52;;;;;;;22.84;59.36;96668.94;5033426;28;20459;-67
2022/06/24 09:15:10;;;;;;;4.65;1.67;;;;;;;22.87;60.28;96662.72;5028790;28;20052;-67
2022/06/24 09:17:38;;;;;;;4.40;1.95;;;;;;;22.81;62.52;96669.66;5044720;28;20037;-67
2022/06/24 09:20:10;;;;;;;8.68;1.90;;;;;;;22.74;63.38;96661.97;5017314;28;20044;-67
2022/06/24 09:23:09;;;;;;;4.97;2.13;;;;;;;22.46;64.54;96670.97;5030163;28;20049;-68
2022/06/24 09:25:50;;;;;;;4.45;1.63;;;;;;;22.43;63.95;96658.69;5022225;28;20040;-67
2022/06/24 09:28:20;;;;;;;3.92;2.50;;;;;;;22.64;64.95;96659.69;5038710;28;20057;-67
2022/06/24 09:30:46;;;;;;;6.40;1.77;;;;;;;22.75;62.90;96666.34;5024039;28;20042;-67
2022/06/24 09:33:18;;;;;;;5.28;1.90;;;;;;;22.67;61.44;96661.75;5018372;28;20565;-67
2022/06/24 09:36:06;;;;;;;4.40;1.73;;;;;;;22.54;61.99;96660.94;5033437;28;20037;-67
2022/06/24 09:38:52;;;;;;;6.70;2.00;;;;;;;22.82;60.30;96665.72;5024373;28;20056;-67
2022/06/24 09:41:18;;;;;;;7.03;1.70;;;;;;;23.58;59.66;96667.78;5023528;28;20049;-67
2022/06/24 09:43:45;;;;;;;5.47;1.92;;;;;;;23.28;58.11;96664.63;5023270;28;20275;-67
2022/06/24 09:46:20;;;;;;;9.60;2.03;;;;;;;23.07;59.85;96663.66;5023752;28;20042;-66
2022/06/24 09:48:48;;;;;;;5.38;1.45;;;;;;;22.45;63.60;96666.59;5035239;28;20578;-67
2022/06/24 09:51:16;;;;;;;4.20;1.98;;;;;;;22.52;62.01;96669.56;5035357;28;20059;-67
2022/06/24 09:53:45;;;;;;;5.50;1.70;;;;;;;22.46;63.04;96666.25;5017332;28;20049;-66
2022/06/24 09:56:13;;;;;;;3.50;1.55;;;;;;;22.58;62.84;96668.22;5024106;28;20519;-66
2022/06/24 09:58:43;;;;;;;4.15;1.80;;;;;;;23.04;60.06;96663.56;5036524;28;20540;-67
2022/06/24 10:01:10;;;;;;;5.50;1.80;;;;;;;23.02;61.49;96663.09;5037673;28;20080;-67
2022/06/24 10:03:39;;;;;;;7.22;1.70;;;;;;;23.59;60.07;96654.78;5037467;28;20087;-67
2022/06/24 10:06:10;;;;;;;3.92;1.73;;;;;;;23.45;60.54;96652.47;5024008;28;20044;-67
2022/06/24 10:08:40;;;;;;;4.47;1.73;;;;;;;23.60;59.10;96659.16;5025530;28;20127;-67
2022/06/24 10:11:27;;;;;;;6.55;1.80;;;;;;;23.34;59.68;96657.69;5022142;28;20045;-67
2022/06/24 10:13:55;;;;;;;4.28;1.73;;;;;;;23.50;59.39;96655.75;5024849;28;20057;-67
2022/06/24 10:16:23;;;;;;;4.22;1.60;;;;;;;23.50;58.87;96654.94;5025586;28;20464;-68
2022/06/24 10:18:51;;;;;;;4.60;1.50;;;;;;;23.48;58.16;96660.81;5024192;28;20520;-67
2022/06/24 10:21:19;;;;;;;4.85;1.90;;;;;;;23.22;59.30;96662.09;5034896;28;20046;-68
2022/06/24 10:23:49;;;;;;;3.40;1.50;;;;;;;23.29;58.53;96655.16;5030628;28;20252;-67
2022/06/24 10:26:29;;;;;;;3.88;1.40;;;;;;;23.56;57.14;96658.25;5034886;28;20056;-67
2022/06/24 10:28:59;;;;;;;4.03;1.17;;;;;;;23.92;53.42;96655.59;5025071;28;20044;-67
2022/06/24 10:31:44;;;;;;;4.70;1.38;;;;;;;24.39;55.11;96659.44;5037940;28;20046;-67
2022/06/24 10:34:33;;;;;;;2.97;1.40;;;;;;;24.33;54.15;96652.59;5056763;28;20532;-67
2022/06/24 10:37:22;;;;;;;3.38;1.30;;;;;;;24.03;51.80;96653.88;5024879;28;20045;-67
2022/06/24 10:39:51;;;;;;;2.95;0.93;;;;;;;23.99;52.37;96655.75;5031480;28;20045;-67
2022/06/24 10:42:21;;;;;;;3.13;1.30;;;;;;;24.27;52.26;96652.88;5049779;28;20045;-67
2022/06/24 10:44:59;;;;;;;4.72;1.00;;;;;;;24.34;51.74;96646.72;5038526;28;21009;-67
2022/06/24 10:47:28;;;;;;;2.17;1.00;;;;;;;24.61;48.96;96654.41;5021490;28;20115;-67
2022/06/24 10:49:55;;;;;;;3.00;1.00;;;;;;;24.32;47.78;96649.03;5035292;28;20041;-67
2022/06/24 10:52:36;;;;;;;5.65;1.30;;;;;;;24.42;47.90;96644.91;5032043;28;20049;-67
2022/06/24 10:55:15;;;;;;;2.95;1.10;;;;;;;24.33;48.07;96641.53;5027352;28;20045;-67
2022/06/24 10:57:43;;;;;;;2.20;1.20;;;;;;;24.54;49.47;96647.53;5019683;28;20057;-67
2022/06/24 11:00:12;;;;;;;2.38;1.00;;;;;;;24.67;46.81;96644.63;5038815;28;20041;-67
2022/06/24 11:02:39;;;;;;;3.00;1.20;;;;;;;24.60;46.09;96639.75;5029005;28;20046;-67
2022/06/24 11:05:10;;;;;;;1.33;0.70;;;;;;;25.03;45.83;96637.06;5021740;28;20041;-67
2022/06/24 11:07:46;;;;;;;5.05;0.93;;;;;;;25.59;44.50;96631.38;5037861;28;20068;-67
2022/06/24 11:10:17;;;;;;;4.43;1.35;;;;;;;26.12;43.98;96623.50;5041024;28;20755;-67
2022/06/24 11:12:49;;;;;;;2.70;1.10;;;;;;;25.98;44.98;96625.66;5046610;28;20059;-67
2022/06/24 11:15:15;;;;;;;3.10;1.17;;;;;;;25.35;45.87;96627.75;5046805;28;20033;-67
2022/06/24 11:17:42;;;;;;;2.47;1.05;;;;;;;25.08;47.34;96633.22;5037405;28;20344;-67
2022/06/24 11:20:11;;;;;;;3.45;1.00;;;;;;;25.18;46.06;96634.59;5024795;28;20046;-67
2022/06/24 11:22:47;;;;;;;2.83;1.23;;;;;;;25.26;46.58;96629.97;5038055;28;20053;-66
2022/06/24 11:25:17;;;;;;;1.50;0.70;;;;;;;25.78;43.62;96635.25;5021898;28;20071;-67
2022/06/24 11:27:44;;;;;;;1.90;0.90;;;;;;;25.65;44.91;96635.44;5045837;28;20064;-66
2022/06/24 11:30:11;;;;;;;2.78;0.95;;;;;;;25.70;45.57;96623.25;5035223;28;20052;-67
2022/06/24 11:32:53;;;;;;;1.60;0.82;;;;;;;25.60;44.80;96626.66;5046003;28;20049;-68
2022/06/24 11:35:21;;;;;;;2.40;1.13;;;;;;;25.85;46.05;96629.81;5046177;28;20040;-67
2022/06/24 11:37:48;;;;;;;4.28;1.05;;;;;;;26.09;43.96;96634.13;5029615;28;20041;-67
2022/06/24 11:40:22;;;;;;;2.75;1.08;;;;;;;26.45;43.75;96635.84;5034400;28;20055;-66
2022/06/24 11:42:49;;;;;;;4.00;0.93;;;;;;;25.95;44.69;96620.06;5046302;28;20051;-67
2022/06/24 11:45:32;;;;;;;3.03;1.13;;;;;;;26.21;43.90;96627.56;5023425;28;20033;-67
2022/06/24 11:47:59;;;;;;;4.43;0.95;;;;;;;26.75;42.26;96626.72;5039289;28;20052;-67